createdAt,value
2022-11-06T00:00:00.493Z,100542.94
2022-11-06T00:02:27.095Z,100537.69
2022-11-06T00:04:53.701Z,100539.41
2022-11-06T00:07:20.265Z,100547.31
2022-11-06T00:09:46.823Z,100543.81
2022-11-06T00:12:13.402Z,100548.22
2022-11-06T00:14:40.242Z,100546.47
2022-11-06T00:17:06.796Z,100549.09
2022-11-06T00:19:33.359Z,100546.47
2022-11-06T00:21:59.978Z,100547.38
2022-11-06T00:24:26.553Z,100544.75
2022-11-06T00:26:54.591Z,100542.09
2022-11-06T00:29:21.317Z,100541.22
2022-11-06T00:31:49.571Z,100553.50
2022-11-06T00:34:16.120Z,100542.09
2022-11-06T00:36:42.677Z,100551.75
2022-11-06T00:39:09.382Z,100547.38
2022-11-06T00:41:36.013Z,100543.00
2022-11-06T00:44:02.737Z,100545.63
2022-11-06T00:46:29.453Z,100537.72
2022-11-06T00:48:56.198Z,100540.34
2022-11-06T00:51:30.926Z,100541.25
2022-11-06T00:53:59.282Z,100538.63
2022-11-06T00:56:26.027Z,100541.25
2022-11-06T00:58:52.664Z,100551.81
2022-11-06T01:01:27.697Z,100543.03
2022-11-06T01:04:01.771Z,100546.59
2022-11-06T01:06:32.612Z,100545.72
2022-11-06T01:08:59.208Z,100544.81
2022-11-06T01:11:37.522Z,100552.72
2022-11-06T01:14:14.274Z,100553.62
2022-11-06T01:16:40.976Z,100550.09
2022-11-06T01:19:07.652Z,100549.22
2022-11-06T01:21:37.363Z,100551.88
2022-11-06T01:24:11.562Z,100551.88
2022-11-06T01:26:45.377Z,100556.28
2022-11-06T01:29:20.381Z,100553.62
2022-11-06T01:31:49.785Z,100557.12
2022-11-06T01:34:16.367Z,100550.13
2022-11-06T01:36:42.917Z,100555.41
2022-11-06T01:39:11.861Z,100555.41
2022-11-06T01:41:40.549Z,100554.56
2022-11-06T01:44:41.325Z,100550.13
2022-11-06T01:47:40.313Z,100553.66
2022-11-06T01:50:09.779Z,100551.03
2022-11-06T01:52:36.336Z,100551.03
2022-11-06T01:55:11.063Z,100554.56
2022-11-06T01:57:37.658Z,100557.19
2022-11-06T02:00:05.461Z,100552.78
2022-11-06T02:02:32.130Z,100553.72
2022-11-06T02:04:58.802Z,100562.44
2022-11-06T02:07:25.376Z,100558.06
2022-11-06T02:09:51.932Z,100563.38
2022-11-06T02:12:44.249Z,100559.84
2022-11-06T02:15:13.458Z,100561.63
2022-11-06T02:17:39.871Z,100560.75
2022-11-06T02:20:34.213Z,100559.88
2022-11-06T02:23:04.233Z,100566.88
2022-11-06T02:26:13.737Z,100573.00
2022-11-06T02:28:44.142Z,100568.66
2022-11-06T02:31:12.577Z,100567.78
2022-11-06T02:34:02.850Z,100572.19
2022-11-06T02:36:31.574Z,100574.84
2022-11-06T02:38:59.401Z,100582.75
2022-11-06T02:41:28.604Z,100583.66
2022-11-06T02:43:56.248Z,100588.94
2022-11-06T02:46:28.955Z,100584.50
2022-11-06T02:48:59.229Z,100586.28
2022-11-06T02:51:27.487Z,100594.19
2022-11-06T02:53:54.045Z,100588.94
2022-11-06T02:56:22.753Z,100595.94
2022-11-06T02:59:03.359Z,100595.94
2022-11-06T03:01:32.721Z,100597.72
2022-11-06T03:04:03.776Z,100600.34
2022-11-06T03:06:34.039Z,100598.56
2022-11-06T03:09:13.317Z,100600.34
2022-11-06T03:11:39.948Z,100602.97
2022-11-06T03:14:19.681Z,100607.38
2022-11-06T03:17:00.327Z,100610.03
2022-11-06T03:19:48.770Z,100613.50
2022-11-06T03:22:34.662Z,100614.44
2022-11-06T03:25:10.206Z,100610.94
2022-11-06T03:27:46.237Z,100618.84
2022-11-06T03:30:16.456Z,100623.19
2022-11-06T03:32:57.698Z,100624.09
2022-11-06T03:35:35.258Z,100626.75
2022-11-06T03:38:29.324Z,100636.38
2022-11-06T03:40:59.566Z,100632.00
2022-11-06T03:43:28.826Z,100637.28
2022-11-06T03:45:55.402Z,100638.19
2022-11-06T03:48:25.370Z,100640.81
2022-11-06T03:50:56.031Z,100638.19
2022-11-06T03:53:27.396Z,100634.69
2022-11-06T03:55:55.887Z,100635.56
2022-11-06T03:58:24.549Z,100639.06
2022-11-06T04:00:51.266Z,100643.47
2022-11-06T04:03:35.889Z,100646.09
2022-11-06T04:06:22.727Z,100653.09
2022-11-06T04:09:07.935Z,100646.97
2022-11-06T04:11:53.575Z,100644.28
2022-11-06T04:14:20.178Z,100644.28
2022-11-06T04:16:48.330Z,100641.56
2022-11-06T04:19:17.060Z,100645.94
2022-11-06T04:21:57.158Z,100644.16
2022-11-06T04:24:46.882Z,100642.31
2022-11-06T04:27:32.031Z,100644.09
2022-11-06T04:30:04.711Z,100650.16
2022-11-06T04:32:33.692Z,100644.91
2022-11-06T04:35:11.112Z,100646.66
2022-11-06T04:37:41.770Z,100648.38
2022-11-06T04:40:12.139Z,100649.25
2022-11-06T04:42:42.730Z,100643.97
2022-11-06T04:45:30.948Z,100641.31
2022-11-06T04:47:57.511Z,100636.91
2022-11-06T04:50:24.092Z,100648.31
2022-11-06T04:52:50.951Z,100650.06
2022-11-06T04:55:18.185Z,100646.53
2022-11-06T04:57:44.760Z,100643.91
2022-11-06T05:00:13.110Z,100650.06
2022-11-06T05:02:39.661Z,100645.66
2022-11-06T05:05:06.607Z,100643.00
2022-11-06T05:07:33.175Z,100648.22
2022-11-06T05:09:59.759Z,100654.37
2022-11-06T05:12:26.309Z,100649.09
2022-11-06T05:14:52.975Z,100649.97
2022-11-06T05:17:19.574Z,100656.09
2022-11-06T05:19:46.181Z,100654.31
2022-11-06T05:22:31.134Z,100658.72
2022-11-06T05:24:57.703Z,100661.34
2022-11-06T05:27:24.235Z,100663.13
2022-11-06T05:29:50.794Z,100664.84
2022-11-06T05:32:17.360Z,100669.19
2022-11-06T05:34:46.058Z,100669.19
2022-11-06T05:37:12.623Z,100678.84
2022-11-06T05:39:41.826Z,100668.28
2022-11-06T05:42:08.781Z,100680.56
2022-11-06T05:44:35.477Z,100683.19
2022-11-06T05:47:02.048Z,100691.09
2022-11-06T05:49:28.641Z,100691.09
2022-11-06T05:51:55.288Z,100696.34
2022-11-06T05:54:22.030Z,100691.06
2022-11-06T05:56:48.826Z,100697.22
2022-11-06T05:59:15.380Z,100698.94
2022-11-06T06:01:42.121Z,100701.63
2022-11-06T06:04:08.803Z,100703.34
2022-11-06T06:06:35.438Z,100700.72
2022-11-06T06:09:02.038Z,100705.13
2022-11-06T06:11:28.590Z,100715.59
2022-11-06T06:13:55.384Z,100714.75
2022-11-06T06:16:22.010Z,100719.09
2022-11-06T06:18:50.378Z,100719.09
2022-11-06T06:21:17.228Z,100725.25
2022-11-06T06:23:43.795Z,100727.00
2022-11-06T06:26:10.400Z,100733.13
2022-11-06T06:28:37.037Z,100740.19
2022-11-06T06:31:04.617Z,100745.44
2022-11-06T06:33:31.389Z,100755.09
2022-11-06T06:35:58.101Z,100741.03
2022-11-06T06:38:25.920Z,100744.53
2022-11-06T06:40:53.877Z,100746.25
2022-11-06T06:43:20.546Z,100748.91
2022-11-06T06:45:47.095Z,100752.41
2022-11-06T06:48:13.866Z,100761.16
2022-11-06T06:50:40.841Z,100757.66
2022-11-06T06:53:07.418Z,100763.81
2022-11-06T06:55:34.014Z,100767.31
2022-11-06T06:58:00.797Z,100774.34
2022-11-06T07:00:28.107Z,100773.44
2022-11-06T07:02:54.787Z,100773.44
2022-11-06T07:05:21.373Z,100779.59
2022-11-06T07:07:47.980Z,100777.84
2022-11-06T07:10:14.627Z,100777.84
2022-11-06T07:12:41.238Z,100771.69
2022-11-06T07:15:08.517Z,100773.41
2022-11-06T07:17:35.113Z,100776.91
2022-11-06T07:20:01.973Z,100768.16
2022-11-06T07:22:35.427Z,100779.56
2022-11-06T07:25:04.266Z,100781.28
2022-11-06T07:27:30.818Z,100786.56
2022-11-06T07:29:57.523Z,100785.69
2022-11-06T07:32:24.081Z,100782.16
2022-11-06T07:34:50.662Z,100785.63
2022-11-06T07:37:19.304Z,100796.19
2022-11-06T07:39:45.877Z,100788.28
2022-11-06T07:42:12.576Z,100798.81
2022-11-06T07:44:39.189Z,100790.91
2022-11-06T07:47:05.768Z,100800.56
2022-11-06T07:49:32.316Z,100801.44
2022-11-06T07:51:58.917Z,100802.31
2022-11-06T07:54:25.484Z,100800.53
2022-11-06T07:56:52.067Z,100792.63
2022-11-06T07:59:18.685Z,100799.66
2022-11-06T08:01:45.323Z,100802.31
2022-11-06T08:04:12.117Z,100794.41
2022-11-06T08:06:38.694Z,100797.91
2022-11-06T08:09:07.474Z,100793.50
2022-11-06T08:11:34.044Z,100800.47
2022-11-06T08:14:01.212Z,100804.91
2022-11-06T08:16:27.918Z,100805.75
2022-11-06T08:18:54.521Z,100806.66
2022-11-06T08:21:21.318Z,100800.47
2022-11-06T08:23:47.950Z,100803.97
2022-11-06T08:26:14.526Z,100807.47
2022-11-06T08:28:41.614Z,100805.72
2022-11-06T08:31:08.447Z,100804.84
2022-11-06T08:33:35.774Z,100814.50
2022-11-06T08:36:06.189Z,100808.34
2022-11-06T08:38:32.916Z,100815.38
2022-11-06T08:41:04.703Z,100807.47
2022-11-06T08:43:31.335Z,100811.88
2022-11-06T08:45:59.158Z,100812.75
2022-11-06T08:48:25.768Z,100803.06
2022-11-06T08:50:52.321Z,100809.19
2022-11-06T08:53:19.245Z,100806.56
2022-11-06T08:55:45.929Z,100810.06
2022-11-06T08:58:14.039Z,100810.91
2022-11-06T09:00:40.738Z,100811.81
2022-11-06T09:03:11.624Z,100808.28
2022-11-06T09:05:42.149Z,100821.41
2022-11-06T09:08:08.960Z,100817.09
2022-11-06T09:10:35.989Z,100812.69
2022-11-06T09:13:04.070Z,100813.59
2022-11-06T09:15:30.720Z,100813.59
2022-11-06T09:17:57.306Z,100818.00
2022-11-06T09:20:24.826Z,100810.09
2022-11-06T09:22:51.526Z,100803.97
2022-11-06T09:25:18.087Z,100804.84
2022-11-06T09:27:58.482Z,100801.34
2022-11-06T09:30:26.008Z,100803.97
2022-11-06T09:32:54.192Z,100804.03
2022-11-06T09:35:21.423Z,100809.34
2022-11-06T09:37:48.016Z,100807.59
2022-11-06T09:40:22.399Z,100797.03
2022-11-06T09:42:57.811Z,100797.91
2022-11-06T09:45:25.800Z,100802.31
2022-11-06T09:48:15.767Z,100800.56
2022-11-06T09:50:48.038Z,100797.97
2022-11-06T09:53:19.512Z,100803.22
2022-11-06T09:55:46.425Z,100798.88
2022-11-06T09:58:24.959Z,100792.75
2022-11-06T10:00:52.192Z,100796.25
2022-11-06T10:03:38.545Z,100795.38
2022-11-06T10:06:05.368Z,100794.50
2022-11-06T10:08:31.949Z,100792.75
2022-11-06T10:11:18.699Z,100790.09
2022-11-06T10:13:59.172Z,100791.88
2022-11-06T10:16:53.868Z,100783.97
2022-11-06T10:19:29.233Z,100779.59
2022-11-06T10:22:07.954Z,100778.72
2022-11-06T10:24:50.281Z,100779.59
2022-11-06T10:27:18.742Z,100776.97
2022-11-06T10:30:14.013Z,100778.72
2022-11-06T10:32:53.170Z,100785.75
2022-11-06T10:35:20.728Z,100783.13
2022-11-06T10:38:12.379Z,100783.13
2022-11-06T10:40:39.380Z,100781.41
2022-11-06T10:43:21.219Z,100784.91
2022-11-06T10:45:50.501Z,100778.75
2022-11-06T10:48:43.661Z,100770.84
2022-11-06T10:51:34.855Z,100769.13
2022-11-06T10:54:16.793Z,100766.50
2022-11-06T10:56:53.205Z,100767.41
2022-11-06T10:59:19.792Z,100760.34
2022-11-06T11:01:46.635Z,100758.63
2022-11-06T11:04:13.312Z,100755.09
2022-11-06T11:06:40.857Z,100759.50
2022-11-06T11:09:33.115Z,100750.72
2022-11-06T11:11:59.788Z,100750.72
2022-11-06T11:14:31.911Z,100745.47
2022-11-06T11:17:00.116Z,100755.09
2022-11-06T11:19:38.181Z,100752.47
2022-11-06T11:22:11.290Z,100749.81
2022-11-06T11:24:37.901Z,100748.09
2022-11-06T11:27:07.525Z,100751.59
2022-11-06T11:29:45.240Z,100751.66
2022-11-06T11:32:14.339Z,100753.38
2022-11-06T11:34:50.318Z,100756.94
2022-11-06T11:37:30.241Z,100759.56
2022-11-06T11:40:16.954Z,100743.75
2022-11-06T11:42:43.548Z,100746.38
2022-11-06T11:45:09.983Z,100743.78
2022-11-06T11:47:37.474Z,100744.66
2022-11-06T11:50:33.337Z,100736.75
2022-11-06T11:53:20.138Z,100735.03
2022-11-06T11:55:48.834Z,100730.62
2022-11-06T11:58:19.328Z,100735.91
2022-11-06T12:00:59.870Z,100736.81
2022-11-06T12:03:34.029Z,100733.28
2022-11-06T12:06:10.859Z,100734.19
2022-11-06T12:08:38.532Z,100733.28
2022-11-06T12:11:05.380Z,100734.19
2022-11-06T12:13:31.951Z,100728.91
2022-11-06T12:16:05.156Z,100730.69
2022-11-06T12:18:34.576Z,100736.81
2022-11-06T12:21:00.995Z,100728.03
2022-11-06T12:23:31.052Z,100730.69
2022-11-06T12:26:11.733Z,100733.31
2022-11-06T12:28:38.511Z,100728.97
2022-11-06T12:31:12.293Z,100732.44
2022-11-06T12:34:05.137Z,100737.72
2022-11-06T12:36:26.671Z,100729.81
2022-11-06T12:38:55.811Z,100734.22
2022-11-06T12:41:24.674Z,100728.09
2022-11-06T12:43:51.275Z,100728.09
2022-11-06T12:46:39.175Z,100732.44
2022-11-06T12:49:16.238Z,100735.13
2022-11-06T12:52:09.063Z,100732.50
2022-11-06T12:55:04.595Z,100749.19
2022-11-06T12:57:37.162Z,100743.91
2022-11-06T13:00:19.594Z,100736.91
2022-11-06T13:02:57.997Z,100734.28
2022-11-06T13:05:53.004Z,100734.28
2022-11-06T13:09:03.345Z,100745.69
2022-11-06T13:11:52.917Z,100745.69
2022-11-06T13:14:25.025Z,100746.56
2022-11-06T13:17:01.727Z,100745.69
2022-11-06T13:19:35.552Z,100744.84
2022-11-06T13:22:12.535Z,100738.69
2022-11-06T13:24:47.118Z,100738.69
2022-11-06T13:27:23.797Z,100743.13
2022-11-06T13:29:50.373Z,100737.84
2022-11-06T13:32:18.167Z,100739.63
2022-11-06T13:34:46.864Z,100746.66
2022-11-06T13:37:16.783Z,100745.78
2022-11-06T13:39:48.934Z,100744.88
2022-11-06T13:42:21.727Z,100745.78
2022-11-06T13:44:48.408Z,100738.75
2022-11-06T13:47:36.496Z,100736.97
2022-11-06T13:50:27.974Z,100735.25
2022-11-06T13:52:58.042Z,100734.41
2022-11-06T13:55:36.365Z,100734.41
2022-11-06T13:58:40.515Z,100729.13
2022-11-06T14:01:24.917Z,100728.22
2022-11-06T14:04:10.000Z,100721.22
2022-11-06T14:06:38.647Z,100715.06
2022-11-06T14:09:06.505Z,100706.28
2022-11-06T14:11:40.605Z,100714.19
2022-11-06T14:14:13.632Z,100712.41
2022-11-06T14:16:40.990Z,100711.56
2022-11-06T14:19:14.964Z,100712.41
2022-11-06T14:21:51.538Z,100704.56
2022-11-06T14:24:34.871Z,100721.22
2022-11-06T14:27:03.053Z,100713.31
2022-11-06T14:29:29.462Z,100713.31
2022-11-06T14:32:14.820Z,100706.34
2022-11-06T14:34:42.300Z,100708.06
2022-11-06T14:37:17.963Z,100719.50
2022-11-06T14:39:56.890Z,100706.34
2022-11-06T14:42:27.015Z,100698.44
2022-11-06T14:44:57.650Z,100709.84
2022-11-06T14:47:40.082Z,100716.88
2022-11-06T14:50:28.786Z,100717.75
2022-11-06T14:53:17.534Z,100723.03
2022-11-06T14:55:49.731Z,100722.16
2022-11-06T14:58:31.384Z,100709.84
2022-11-06T15:01:09.790Z,100716.88
2022-11-06T15:03:53.003Z,100724.78
2022-11-06T15:06:34.631Z,100723.94
2022-11-06T15:09:01.177Z,100729.19
2022-11-06T15:11:30.393Z,100726.56
2022-11-06T15:14:03.460Z,100731.84
2022-11-06T15:16:43.952Z,100730.09
2022-11-06T15:19:13.489Z,100736.22
2022-11-06T15:21:44.805Z,100734.50
2022-11-06T15:24:24.986Z,100740.62
2022-11-06T15:26:57.300Z,100741.47
2022-11-06T15:29:28.653Z,100744.16
2022-11-06T15:32:00.715Z,100738.91
2022-11-06T15:34:37.802Z,100738.91
2022-11-06T15:37:12.566Z,100741.53
2022-11-06T15:39:41.006Z,100737.19
2022-11-06T15:42:14.362Z,100738.03
2022-11-06T15:44:42.570Z,100731.91
2022-11-06T15:47:20.100Z,100743.31
2022-11-06T15:49:46.735Z,100737.19
2022-11-06T15:52:19.638Z,100739.81
2022-11-06T15:54:48.669Z,100739.81
2022-11-06T15:57:18.587Z,100735.44
2022-11-06T15:59:45.128Z,100738.94
2022-11-06T16:02:19.849Z,100738.09
2022-11-06T16:04:46.933Z,100740.72
2022-11-06T16:07:13.879Z,100741.59
2022-11-06T16:09:41.318Z,100738.09
2022-11-06T16:12:11.321Z,100742.50
2022-11-06T16:14:41.636Z,100739.00
2022-11-06T16:17:15.641Z,100744.25
2022-11-06T16:19:44.130Z,100744.25
2022-11-06T16:22:16.376Z,100745.13
2022-11-06T16:24:52.141Z,100746.00
2022-11-06T16:27:18.713Z,100747.78
2022-11-06T16:29:52.537Z,100746.00
2022-11-06T16:32:21.030Z,100749.56
2022-11-06T16:34:48.377Z,100741.66
2022-11-06T16:37:17.993Z,100746.06
2022-11-06T16:39:52.607Z,100743.41
2022-11-06T16:42:22.373Z,100751.31
2022-11-06T16:45:08.152Z,100746.06
2022-11-06T16:47:34.715Z,100749.59
2022-11-06T16:50:02.594Z,100751.31
2022-11-06T16:52:33.592Z,100739.06
2022-11-06T16:55:17.158Z,100746.97
2022-11-06T16:57:48.386Z,100749.59
2022-11-06T17:00:20.950Z,100753.16
2022-11-06T17:02:49.043Z,100748.75
2022-11-06T17:05:21.578Z,100747.88
2022-11-06T17:07:48.458Z,100749.66
2022-11-06T17:10:41.895Z,100750.50
2022-11-06T17:13:18.608Z,100754.91
2022-11-06T17:15:47.220Z,100752.28
2022-11-06T17:18:23.401Z,100750.50
2022-11-06T17:20:55.238Z,100755.78
2022-11-06T17:23:22.399Z,100756.66
2022-11-06T17:25:49.782Z,100752.28
2022-11-06T17:28:16.582Z,100759.28
2022-11-06T17:30:43.630Z,100758.44
2022-11-06T17:33:10.286Z,100764.56
2022-11-06T17:35:36.892Z,100762.84
2022-11-06T17:38:07.416Z,100765.47
2022-11-06T17:40:34.371Z,100765.47
2022-11-06T17:43:00.940Z,100761.09
2022-11-06T17:45:27.484Z,100770.75
2022-11-06T17:47:54.456Z,100775.09
2022-11-06T17:50:21.062Z,100775.16
2022-11-06T17:52:47.608Z,100772.50
2022-11-06T17:55:14.202Z,100770.78
2022-11-06T17:57:40.824Z,100766.37
2022-11-06T18:00:10.031Z,100763.75
2022-11-06T18:02:59.929Z,100756.75
2022-11-06T18:05:23.554Z,100768.19
2022-11-06T18:07:50.121Z,100770.84
2022-11-06T18:10:16.695Z,100772.56
2022-11-06T18:12:43.302Z,100769.06
2022-11-06T18:15:10.757Z,100773.47
2022-11-06T18:17:37.349Z,100776.09
2022-11-06T18:20:05.284Z,100772.56
2022-11-06T18:22:32.061Z,100779.63
2022-11-06T18:24:58.610Z,100773.47
2022-11-06T18:27:25.171Z,100783.16
2022-11-06T18:29:51.728Z,100785.75
2022-11-06T18:32:18.313Z,100782.28
2022-11-06T18:34:44.886Z,100784.03
2022-11-06T18:37:11.864Z,100786.69
2022-11-06T18:39:39.699Z,100791.97
2022-11-06T18:42:06.292Z,100790.19
2022-11-06T18:44:35.023Z,100800.72
2022-11-06T18:47:01.595Z,100799.00
2022-11-06T18:49:28.149Z,100799.87
2022-11-06T18:51:54.798Z,100796.37
2022-11-06T18:54:21.407Z,100789.37
2022-11-06T18:56:47.952Z,100785.84
2022-11-06T18:59:16.313Z,100792.00
2022-11-06T19:01:43.092Z,100793.75
2022-11-06T19:04:10.823Z,100798.16
2022-11-06T19:06:40.428Z,100797.28
2022-11-06T19:09:08.197Z,100793.75
2022-11-06T19:11:34.790Z,100800.78
2022-11-06T19:14:01.384Z,100809.59
2022-11-06T19:16:27.929Z,100799.06
2022-11-06T19:21:28.267Z,100801.69
2022-11-06T19:24:00.211Z,100800.84
2022-11-06T19:26:31.438Z,100801.69
2022-11-06T19:28:59.901Z,100803.47
2022-11-06T19:31:29.424Z,100804.38
2022-11-06T19:33:56.939Z,100799.97
2022-11-06T19:36:25.315Z,100797.34
2022-11-06T19:38:52.259Z,100797.34
2022-11-06T19:41:19.080Z,100794.75
2022-11-06T19:43:45.714Z,100800.88
2022-11-06T19:46:12.290Z,100792.97
2022-11-06T19:48:38.999Z,100788.59
2022-11-06T19:51:12.268Z,100790.34
2022-11-06T19:53:39.782Z,100792.13
2022-11-06T19:56:08.293Z,100783.31
2022-11-06T19:58:35.146Z,100789.50
2022-11-06T20:01:13.178Z,100792.13
2022-11-06T20:03:40.000Z,100794.75
2022-11-06T20:06:08.163Z,100796.53
2022-11-06T20:08:36.823Z,100795.63
2022-11-06T20:11:15.971Z,100791.25
2022-11-06T20:13:43.021Z,100795.63
2022-11-06T20:16:17.403Z,100786.88
2022-11-06T20:18:45.123Z,100800.91
2022-11-06T20:21:11.988Z,100802.72
2022-11-06T20:23:38.677Z,100803.59
2022-11-06T20:26:05.461Z,100806.22
2022-11-06T20:28:32.709Z,100802.72
2022-11-06T20:30:59.270Z,100805.34
2022-11-06T20:33:26.407Z,100795.72
2022-11-06T20:35:52.954Z,100806.25
2022-11-06T20:38:19.531Z,100803.63
2022-11-06T20:40:46.082Z,100793.09
2022-11-06T20:43:13.097Z,100798.34
2022-11-06T20:45:39.937Z,100805.41
2022-11-06T20:48:07.068Z,100820.28
2022-11-06T20:50:34.050Z,100816.78
2022-11-06T20:53:00.670Z,100830.88
2022-11-06T20:55:27.284Z,100838.78
2022-11-06T20:57:54.011Z,100837.88
2022-11-06T21:00:20.764Z,100835.25
2022-11-06T21:02:47.534Z,100839.66
2022-11-06T21:05:17.085Z,100834.38
2022-11-06T21:07:43.725Z,100831.75
2022-11-06T21:10:12.011Z,100822.12
2022-11-06T21:12:38.945Z,100828.25
2022-11-06T21:15:08.263Z,100830.03
2022-11-06T21:17:35.758Z,100828.25
2022-11-06T21:20:02.338Z,100825.66
2022-11-06T21:22:28.950Z,100824.81
2022-11-06T21:24:55.745Z,100828.28
2022-11-06T21:27:22.348Z,100830.06
2022-11-06T21:29:48.959Z,100824.81
2022-11-06T21:32:15.505Z,100822.16
2022-11-06T21:34:42.184Z,100818.66
2022-11-06T21:37:08.767Z,100822.19
2022-11-06T21:39:36.711Z,100822.19
2022-11-06T21:42:04.729Z,100825.72
2022-11-06T21:44:31.330Z,100824.81
2022-11-06T21:46:57.878Z,100827.44
2022-11-06T21:49:24.442Z,100831.84
2022-11-06T21:51:50.995Z,100831.00
2022-11-06T21:54:36.258Z,100820.44
2022-11-06T21:57:02.926Z,100822.22
2022-11-06T21:59:29.974Z,100816.94
2022-11-06T22:01:56.689Z,100832.75
2022-11-06T22:04:23.491Z,100834.53
2022-11-06T22:06:50.172Z,100828.41
2022-11-06T22:09:21.958Z,100840.69
2022-11-06T22:11:51.258Z,100841.56
2022-11-06T22:14:17.839Z,100840.69
2022-11-06T22:16:45.889Z,100845.97
2022-11-06T22:19:13.534Z,100840.75
2022-11-06T22:21:40.335Z,100843.37
2022-11-06T22:24:07.490Z,100848.66
2022-11-06T22:26:34.877Z,100851.28
2022-11-06T22:29:04.118Z,100839.84
2022-11-06T22:31:30.711Z,100839.00
2022-11-06T22:33:57.345Z,100845.12
2022-11-06T22:36:23.950Z,100840.75
2022-11-06T22:38:50.533Z,100844.25
2022-11-06T22:41:19.005Z,100844.25
2022-11-06T22:43:48.400Z,100834.59
2022-11-06T22:46:16.890Z,100844.25
2022-11-06T22:48:43.742Z,100841.66
2022-11-06T22:51:15.123Z,100847.78
2022-11-06T22:53:41.788Z,100841.66
2022-11-06T22:56:08.450Z,100842.53
2022-11-06T22:58:35.084Z,100842.53
2022-11-06T23:01:01.696Z,100836.41
2022-11-06T23:03:29.006Z,100838.16
2022-11-06T23:05:58.390Z,100839.94
2022-11-06T23:08:27.986Z,100839.94
2022-11-06T23:10:57.072Z,100845.19
2022-11-06T23:13:23.755Z,100839.94
2022-11-06T23:15:50.945Z,100839.06
2022-11-06T23:18:17.676Z,100838.22
2022-11-06T23:20:44.225Z,100835.59
2022-11-06T23:23:10.999Z,100839.09
2022-11-06T23:25:37.969Z,100835.59
2022-11-06T23:28:04.763Z,100835.59
2022-11-06T23:30:31.530Z,100833.81
2022-11-06T23:32:58.124Z,100840.84
2022-11-06T23:35:30.849Z,100840.00
2022-11-06T23:37:58.607Z,100845.25
2022-11-06T23:40:25.247Z,100846.13
2022-11-06T23:42:54.612Z,100854.94
2022-11-06T23:45:39.899Z,100853.19
2022-11-06T23:48:12.395Z,100857.56
2022-11-06T23:50:39.097Z,100852.28
2022-11-06T23:53:05.649Z,100852.28
2022-11-06T23:55:32.581Z,100854.06
2022-11-06T23:58:01.685Z,100854.06
